sensor_id;sensor_type;location;lat;lon;timestamp;temperature;humidity
20459;DHT22;10388;52.314;7.938;2022-10-17T00:00:17;12.30;99.90
20459;DHT22;10388;52.314;7.938;2022-10-17T00:02:56;12.30;99.90
20459;DHT22;10388;52.314;7.938;2022-10-17T00:05:55;12.30;99.90
20459;DHT22;10388;52.314;7.938;2022-10-17T00:11:46;12.30;99.90
20459;DHT22;10388;52.314;7.938;2022-10-17T00:14:22;12.30;99.90
20459;DHT22;10388;52.314;7.938;2022-10-17T00:20:21;12.20;99.90
20459;DHT22;10388;52.314;7.938;2022-10-17T00:23:17;12.20;99.90
20459;DHT22;10388;52.314;7.938;2022-10-17T00:26:01;12.10;99.90
20459;DHT22;10388;52.314;7.938;2022-10-17T00:31:27;12.10;99.90
20459;DHT22;10388;52.314;7.938;2022-10-17T00:37:10;12.00;99.90
20459;DHT22;10388;52.314;7.938;2022-10-17T00:40:03;12.10;99.90
20459;DHT22;10388;52.314;7.938;2022-10-17T00:45:41;12.00;99.90
20459;DHT22;10388;52.314;7.938;2022-10-17T00:48:23;12.00;99.90
20459;DHT22;10388;52.314;7.938;2022-10-17T00:51:44;11.90;99.90
20459;DHT22;10388;52.314;7.938;2022-10-17T00:57:26;12.00;99.90
20459;DHT22;10388;52.314;7.938;2022-10-17T01:00:10;12.10;99.90
20459;DHT22;10388;52.314;7.938;2022-10-17T01:03:11;12.00;99.90
20459;DHT22;10388;52.314;7.938;2022-10-17T01:05:49;11.90;99.90
20459;DHT22;10388;52.314;7.938;2022-10-17T01:43:48;11.90;99.90
20459;DHT22;10388;52.314;7.938;2022-10-17T01:47:03;11.90;99.90
20459;DHT22;10388;52.314;7.938;2022-10-17T01:50:08;12.00;99.90
20459;DHT22;10388;52.314;7.938;2022-10-17T01:53:10;12.00;99.90
20459;DHT22;10388;52.314;7.938;2022-10-17T01:55:56;12.00;99.90
20459;DHT22;10388;52.314;7.938;2022-10-17T01:58:31;12.00;99.90
20459;DHT22;10388;52.314;7.938;2022-10-17T02:01:05;12.10;99.90
20459;DHT22;10388;52.314;7.938;2022-10-17T02:03:38;12.10;99.90
20459;DHT22;10388;52.314;7.938;2022-10-17T02:06:10;12.10;99.90
20459;DHT22;10388;52.314;7.938;2022-10-17T02:08:43;12.10;99.90
20459;DHT22;10388;52.314;7.938;2022-10-17T02:13:50;12.10;99.90
20459;DHT22;10388;52.314;7.938;2022-10-17T02:16:34;12.10;99.90
20459;DHT22;10388;52.314;7.938;2022-10-17T02:19:13;12.10;99.90
20459;DHT22;10388;52.314;7.938;2022-10-17T02:28:03;12.10;99.90
20459;DHT22;10388;52.314;7.938;2022-10-17T02:30:57;12.20;99.90
20459;DHT22;10388;52.314;7.938;2022-10-17T02:33:34;12.10;99.90
20459;DHT22;10388;52.314;7.938;2022-10-17T02:36:11;12.10;99.90
20459;DHT22;10388;52.314;7.938;2022-10-17T02:38:44;12.10;99.90
20459;DHT22;10388;52.314;7.938;2022-10-17T02:41:17;12.10;99.90
20459;DHT22;10388;52.314;7.938;2022-10-17T02:43:49;12.10;99.90
20459;DHT22;10388;52.314;7.938;2022-10-17T02:46:22;12.10;99.90
20459;DHT22;10388;52.314;7.938;2022-10-17T02:48:54;12.10;99.90
20459;DHT22;10388;52.314;7.938;2022-10-17T02:51:35;12.10;99.90
20459;DHT22;10388;52.314;7.938;2022-10-17T02:54:15;12.10;99.90
20459;DHT22;10388;52.314;7.938;2022-10-17T02:59:42;12.10;99.90
20459;DHT22;10388;52.314;7.938;2022-10-17T03:02:14;12.10;99.90
20459;DHT22;10388;52.314;7.938;2022-10-17T03:04:45;12.10;99.90
20459;DHT22;10388;52.314;7.938;2022-10-17T03:07:16;12.10;99.90
20459;DHT22;10388;52.314;7.938;2022-10-17T03:09:46;12.10;99.90
20459;DHT22;10388;52.314;7.938;2022-10-17T03:12:17;12.20;99.90
20459;DHT22;10388;52.314;7.938;2022-10-17T03:14:47;12.10;99.90
20459;DHT22;10388;52.314;7.938;2022-10-17T03:17:18;12.10;99.90
20459;DHT22;10388;52.314;7.938;2022-10-17T03:19:48;12.10;99.90
20459;DHT22;10388;52.314;7.938;2022-10-17T03:22:19;12.10;99.90
20459;DHT22;10388;52.314;7.938;2022-10-17T03:24:50;12.10;99.90
20459;DHT22;10388;52.314;7.938;2022-10-17T03:27:20;12.10;99.90
20459;DHT22;10388;52.314;7.938;2022-10-17T03:29:51;12.10;99.90
20459;DHT22;10388;52.314;7.938;2022-10-17T03:32:21;12.10;99.90
20459;DHT22;10388;52.314;7.938;2022-10-17T03:34:52;12.10;99.90
20459;DHT22;10388;52.314;7.938;2022-10-17T03:37:22;12.20;99.90
20459;DHT22;10388;52.314;7.938;2022-10-17T03:39:53;12.20;99.90
20459;DHT22;10388;52.314;7.938;2022-10-17T03:42:23;12.20;99.90
20459;DHT22;10388;52.314;7.938;2022-10-17T03:44:54;12.20;99.90
20459;DHT22;10388;52.314;7.938;2022-10-17T03:47:24;12.20;99.90
20459;DHT22;10388;52.314;7.938;2022-10-17T03:49:55;12.20;99.90
20459;DHT22;10388;52.314;7.938;2022-10-17T03:52:25;12.10;99.90
20459;DHT22;10388;52.314;7.938;2022-10-17T03:54:56;12.10;99.90
20459;DHT22;10388;52.314;7.938;2022-10-17T03:57:26;12.20;99.90
20459;DHT22;10388;52.314;7.938;2022-10-17T03:59:57;12.20;99.90
20459;DHT22;10388;52.314;7.938;2022-10-17T04:02:27;12.20;99.90
20459;DHT22;10388;52.314;7.938;2022-10-17T04:04:58;12.20;99.90
20459;DHT22;10388;52.314;7.938;2022-10-17T04:07:28;12.20;99.90
20459;DHT22;10388;52.314;7.938;2022-10-17T04:09:59;12.10;99.90
20459;DHT22;10388;52.314;7.938;2022-10-17T04:12:29;12.10;99.90
20459;DHT22;10388;52.314;7.938;2022-10-17T04:15:00;12.10;99.90
20459;DHT22;10388;52.314;7.938;2022-10-17T04:17:31;12.10;99.90
20459;DHT22;10388;52.314;7.938;2022-10-17T04:20:01;12.00;99.90
20459;DHT22;10388;52.314;7.938;2022-10-17T04:22:32;12.00;99.90
20459;DHT22;10388;52.314;7.938;2022-10-17T04:25:03;12.00;99.90
20459;DHT22;10388;52.314;7.938;2022-10-17T04:27:33;12.00;99.90
20459;DHT22;10388;52.314;7.938;2022-10-17T04:30:04;11.90;99.90
20459;DHT22;10388;52.314;7.938;2022-10-17T04:32:36;11.80;99.90
20459;DHT22;10388;52.314;7.938;2022-10-17T04:35:08;11.80;99.90
20459;DHT22;10388;52.314;7.938;2022-10-17T04:37:38;11.70;99.90
20459;DHT22;10388;52.314;7.938;2022-10-17T04:40:09;11.70;99.90
20459;DHT22;10388;52.314;7.938;2022-10-17T04:42:39;11.70;99.90
20459;DHT22;10388;52.314;7.938;2022-10-17T04:45:10;11.60;99.90
20459;DHT22;10388;52.314;7.938;2022-10-17T04:47:41;11.60;99.90
20459;DHT22;10388;52.314;7.938;2022-10-17T04:50:11;11.60;99.90
20459;DHT22;10388;52.314;7.938;2022-10-17T04:52:42;11.60;99.90
20459;DHT22;10388;52.314;7.938;2022-10-17T04:55:12;11.60;99.90
20459;DHT22;10388;52.314;7.938;2022-10-17T04:57:43;11.50;99.90
20459;DHT22;10388;52.314;7.938;2022-10-17T05:00:13;11.50;99.90
20459;DHT22;10388;52.314;7.938;2022-10-17T05:02:44;11.50;99.90
20459;DHT22;10388;52.314;7.938;2022-10-17T05:05:14;11.40;99.90
20459;DHT22;10388;52.314;7.938;2022-10-17T05:07:45;11.40;99.90
20459;DHT22;10388;52.314;7.938;2022-10-17T05:10:15;11.40;99.90
20459;DHT22;10388;52.314;7.938;2022-10-17T05:12:49;11.40;99.90
20459;DHT22;10388;52.314;7.938;2022-10-17T05:15:20;11.50;99.90
20459;DHT22;10388;52.314;7.938;2022-10-17T05:17:54;11.50;99.90
20459;DHT22;10388;52.314;7.938;2022-10-17T05:20:25;11.50;99.90
20459;DHT22;10388;52.314;7.938;2022-10-17T05:22:58;11.50;99.90
20459;DHT22;10388;52.314;7.938;2022-10-17T05:25:29;11.50;99.90
20459;DHT22;10388;52.314;7.938;2022-10-17T05:27:59;11.40;99.90
20459;DHT22;10388;52.314;7.938;2022-10-17T05:30:30;11.40;99.90
20459;DHT22;10388;52.314;7.938;2022-10-17T05:33:00;11.40;99.90
20459;DHT22;10388;52.314;7.938;2022-10-17T05:35:31;11.40;99.90
20459;DHT22;10388;52.314;7.938;2022-10-17T05:38:02;11.30;99.90
20459;DHT22;10388;52.314;7.938;2022-10-17T05:40:32;11.40;99.90
20459;DHT22;10388;52.314;7.938;2022-10-17T05:43:03;11.30;99.90
20459;DHT22;10388;52.314;7.938;2022-10-17T05:45:35;11.30;99.90
20459;DHT22;10388;52.314;7.938;2022-10-17T05:48:05;11.30;99.90
20459;DHT22;10388;52.314;7.938;2022-10-17T05:50:36;11.30;99.90
20459;DHT22;10388;52.314;7.938;2022-10-17T05:53:06;11.30;99.90
20459;DHT22;10388;52.314;7.938;2022-10-17T05:55:37;11.30;99.90
20459;DHT22;10388;52.314;7.938;2022-10-17T05:58:08;11.30;99.90
20459;DHT22;10388;52.314;7.938;2022-10-17T06:00:38;11.30;99.90
20459;DHT22;10388;52.314;7.938;2022-10-17T06:03:11;11.30;99.90
20459;DHT22;10388;52.314;7.938;2022-10-17T06:05:41;11.30;99.90
20459;DHT22;10388;52.314;7.938;2022-10-17T06:08:12;11.30;99.90
20459;DHT22;10388;52.314;7.938;2022-10-17T06:10:42;11.30;99.90
20459;DHT22;10388;52.314;7.938;2022-10-17T06:13:13;11.30;99.90
20459;DHT22;10388;52.314;7.938;2022-10-17T06:15:44;11.30;99.90
20459;DHT22;10388;52.314;7.938;2022-10-17T06:18:14;11.30;99.90
20459;DHT22;10388;52.314;7.938;2022-10-17T06:20:45;11.30;99.90
20459;DHT22;10388;52.314;7.938;2022-10-17T06:23:16;11.40;99.90
20459;DHT22;10388;52.314;7.938;2022-10-17T06:25:46;11.40;99.90
20459;DHT22;10388;52.314;7.938;2022-10-17T06:28:17;11.50;99.90
20459;DHT22;10388;52.314;7.938;2022-10-17T06:30:47;11.60;99.90
20459;DHT22;10388;52.314;7.938;2022-10-17T06:33:18;11.80;99.90
20459;DHT22;10388;52.314;7.938;2022-10-17T06:35:51;11.90;99.90
20459;DHT22;10388;52.314;7.938;2022-10-17T06:38:22;12.10;99.90
20459;DHT22;10388;52.314;7.938;2022-10-17T06:40:53;12.20;99.90
20459;DHT22;10388;52.314;7.938;2022-10-17T06:43:23;12.30;99.90
20459;DHT22;10388;52.314;7.938;2022-10-17T06:45:54;12.40;99.90
20459;DHT22;10388;52.314;7.938;2022-10-17T06:48:24;12.60;99.90
20459;DHT22;10388;52.314;7.938;2022-10-17T06:51:04;12.80;99.90
20459;DHT22;10388;52.314;7.938;2022-10-17T06:53:35;13.10;99.90
20459;DHT22;10388;52.314;7.938;2022-10-17T06:56:07;13.20;99.90
20459;DHT22;10388;52.314;7.938;2022-10-17T06:58:39;13.40;99.90
20459;DHT22;10388;52.314;7.938;2022-10-17T07:01:12;13.50;99.90
20459;DHT22;10388;52.314;7.938;2022-10-17T07:03:42;13.60;99.90
20459;DHT22;10388;52.314;7.938;2022-10-17T07:06:13;13.70;99.90
20459;DHT22;10388;52.314;7.938;2022-10-17T07:08:44;13.70;99.90
20459;DHT22;10388;52.314;7.938;2022-10-17T07:11:18;13.80;99.90
20459;DHT22;10388;52.314;7.938;2022-10-17T07:13:49;13.90;99.90
20459;DHT22;10388;52.314;7.938;2022-10-17T07:16:19;14.00;99.90
20459;DHT22;10388;52.314;7.938;2022-10-17T07:18:51;14.10;99.90
20459;DHT22;10388;52.314;7.938;2022-10-17T07:21:21;14.20;99.90
20459;DHT22;10388;52.314;7.938;2022-10-17T07:23:52;14.30;99.90
20459;DHT22;10388;52.314;7.938;2022-10-17T07:26:23;14.30;99.90
20459;DHT22;10388;52.314;7.938;2022-10-17T07:28:54;14.40;99.90
20459;DHT22;10388;52.314;7.938;2022-10-17T07:31:25;14.40;99.90
20459;DHT22;10388;52.314;7.938;2022-10-17T07:33:55;14.60;99.90
20459;DHT22;10388;52.314;7.938;2022-10-17T07:36:28;14.70;99.90
20459;DHT22;10388;52.314;7.938;2022-10-17T07:38:58;14.70;99.90
20459;DHT22;10388;52.314;7.938;2022-10-17T07:41:29;14.80;99.90
20459;DHT22;10388;52.314;7.938;2022-10-17T07:43:59;14.90;99.90
20459;DHT22;10388;52.314;7.938;2022-10-17T07:46:30;15.00;99.90
20459;DHT22;10388;52.314;7.938;2022-10-17T07:49:01;15.00;99.90
20459;DHT22;10388;52.314;7.938;2022-10-17T07:51:31;15.10;99.90
20459;DHT22;10388;52.314;7.938;2022-10-17T07:54:04;15.20;99.90
20459;DHT22;10388;52.314;7.938;2022-10-17T07:56:35;15.30;99.90
20459;DHT22;10388;52.314;7.938;2022-10-17T07:59:05;15.40;99.90
20459;DHT22;10388;52.314;7.938;2022-10-17T08:01:36;15.40;99.90
20459;DHT22;10388;52.314;7.938;2022-10-17T08:04:07;15.60;99.90
20459;DHT22;10388;52.314;7.938;2022-10-17T08:06:37;15.60;99.90
20459;DHT22;10388;52.314;7.938;2022-10-17T08:09:08;15.70;99.90
20459;DHT22;10388;52.314;7.938;2022-10-17T08:11:38;15.80;99.90
20459;DHT22;10388;52.314;7.938;2022-10-17T08:14:10;15.90;99.90
20459;DHT22;10388;52.314;7.938;2022-10-17T08:16:42;15.90;99.90
20459;DHT22;10388;52.314;7.938;2022-10-17T08:19:12;16.00;99.90
20459;DHT22;10388;52.314;7.938;2022-10-17T08:21:43;16.10;99.90
20459;DHT22;10388;52.314;7.938;2022-10-17T08:24:16;16.10;99.90
20459;DHT22;10388;52.314;7.938;2022-10-17T08:26:46;16.30;99.90
20459;DHT22;10388;52.314;7.938;2022-10-17T08:29:17;16.30;99.90
20459;DHT22;10388;52.314;7.938;2022-10-17T08:31:47;16.30;99.90
20459;DHT22;10388;52.314;7.938;2022-10-17T08:34:18;16.30;99.90
20459;DHT22;10388;52.314;7.938;2022-10-17T08:36:48;16.40;99.90
20459;DHT22;10388;52.314;7.938;2022-10-17T08:39:19;16.50;99.90
20459;DHT22;10388;52.314;7.938;2022-10-17T08:42:24;16.60;99.90
20459;DHT22;10388;52.314;7.938;2022-10-17T08:45:26;16.70;99.90
20459;DHT22;10388;52.314;7.938;2022-10-17T08:48:02;16.80;99.90
20459;DHT22;10388;52.314;7.938;2022-10-17T08:50:37;16.80;99.90
20459;DHT22;10388;52.314;7.938;2022-10-17T08:56:13;16.80;99.90
20459;DHT22;10388;52.314;7.938;2022-10-17T08:58:45;16.90;99.90
20459;DHT22;10388;52.314;7.938;2022-10-17T09:01:28;16.90;99.90
20459;DHT22;10388;52.314;7.938;2022-10-17T09:13:11;17.10;99.90
20459;DHT22;10388;52.314;7.938;2022-10-17T09:15:57;17.10;99.90
20459;DHT22;10388;52.314;7.938;2022-10-17T09:18:33;17.20;99.90
20459;DHT22;10388;52.314;7.938;2022-10-17T09:21:16;17.30;99.90
20459;DHT22;10388;52.314;7.938;2022-10-17T09:23:51;17.30;99.90
20459;DHT22;10388;52.314;7.938;2022-10-17T09:26:24;17.30;99.90
20459;DHT22;10388;52.314;7.938;2022-10-17T09:28:58;17.30;99.90
20459;DHT22;10388;52.314;7.938;2022-10-17T09:31:33;17.30;99.90
20459;DHT22;10388;52.314;7.938;2022-10-17T09:34:08;17.30;99.90
20459;DHT22;10388;52.314;7.938;2022-10-17T09:36:40;17.40;99.90
20459;DHT22;10388;52.314;7.938;2022-10-17T09:39:19;17.40;99.90
20459;DHT22;10388;52.314;7.938;2022-10-17T09:41:57;17.40;99.90
20459;DHT22;10388;52.314;7.938;2022-10-17T09:47:24;17.40;99.90
20459;DHT22;10388;52.314;7.938;2022-10-17T09:49:57;17.50;99.90
20459;DHT22;10388;52.314;7.938;2022-10-17T09:52:39;17.50;99.90
20459;DHT22;10388;52.314;7.938;2022-10-17T09:55:28;17.50;99.90
20459;DHT22;10388;52.314;7.938;2022-10-17T09:58:03;17.70;99.90
20459;DHT22;10388;52.314;7.938;2022-10-17T10:00:37;17.80;99.90
20459;DHT22;10388;52.314;7.938;2022-10-17T10:06:05;18.10;99.90
20459;DHT22;10388;52.314;7.938;2022-10-17T10:08:56;18.00;99.90
20459;DHT22;10388;52.314;7.938;2022-10-17T10:12:05;17.90;99.90
20459;DHT22;10388;52.314;7.938;2022-10-17T10:14:44;17.80;99.90
20459;DHT22;10388;52.314;7.938;2022-10-17T10:17:38;17.80;99.90
20459;DHT22;10388;52.314;7.938;2022-10-17T10:20:34;17.80;99.90
20459;DHT22;10388;52.314;7.938;2022-10-17T10:23:14;17.80;99.90
20459;DHT22;10388;52.314;7.938;2022-10-17T10:26:00;17.90;99.90
20459;DHT22;10388;52.314;7.938;2022-10-17T10:28:35;18.00;99.90
20459;DHT22;10388;52.314;7.938;2022-10-17T10:31:07;18.10;99.90
20459;DHT22;10388;52.314;7.938;2022-10-17T10:33:41;18.20;99.90
20459;DHT22;10388;52.314;7.938;2022-10-17T10:36:12;18.20;99.90
20459;DHT22;10388;52.314;7.938;2022-10-17T10:38:52;18.20;99.90
20459;DHT22;10388;52.314;7.938;2022-10-17T10:41:23;18.30;99.90
20459;DHT22;10388;52.314;7.938;2022-10-17T10:43:57;18.40;99.90
20459;DHT22;10388;52.314;7.938;2022-10-17T10:46:28;18.40;99.90
20459;DHT22;10388;52.314;7.938;2022-10-17T10:49:00;18.40;99.90
20459;DHT22;10388;52.314;7.938;2022-10-17T10:51:42;18.40;99.90
20459;DHT22;10388;52.314;7.938;2022-10-17T10:54:27;18.50;99.90
20459;DHT22;10388;52.314;7.938;2022-10-17T10:57:01;18.60;99.90
20459;DHT22;10388;52.314;7.938;2022-10-17T10:59:44;18.60;99.90
20459;DHT22;10388;52.314;7.938;2022-10-17T11:02:22;18.50;99.90
20459;DHT22;10388;52.314;7.938;2022-10-17T11:04:58;18.50;99.90
20459;DHT22;10388;52.314;7.938;2022-10-17T11:07:50;18.40;99.90
20459;DHT22;10388;52.314;7.938;2022-10-17T11:10:30;18.30;99.90
20459;DHT22;10388;52.314;7.938;2022-10-17T11:13:09;18.30;99.90
20459;DHT22;10388;52.314;7.938;2022-10-17T11:15:47;18.20;99.90
20459;DHT22;10388;52.314;7.938;2022-10-17T11:21:36;18.20;99.90
20459;DHT22;10388;52.314;7.938;2022-10-17T11:24:47;18.10;99.90
20459;DHT22;10388;52.314;7.938;2022-10-17T11:27:24;18.10;99.90
20459;DHT22;10388;52.314;7.938;2022-10-17T11:29:56;18.10;99.90
20459;DHT22;10388;52.314;7.938;2022-10-17T11:32:35;18.00;99.90
20459;DHT22;10388;52.314;7.938;2022-10-17T11:40:50;17.90;99.90
20459;DHT22;10388;52.314;7.938;2022-10-17T11:43:31;17.90;99.90
20459;DHT22;10388;52.314;7.938;2022-10-17T11:46:16;17.90;99.90
20459;DHT22;10388;52.314;7.938;2022-10-17T11:51:18;17.90;99.90
20459;DHT22;10388;52.314;7.938;2022-10-17T11:54:24;18.00;99.90
20459;DHT22;10388;52.314;7.938;2022-10-17T12:11:55;18.20;99.90
20459;DHT22;10388;52.314;7.938;2022-10-17T12:17:04;18.30;99.90
20459;DHT22;10388;52.314;7.938;2022-10-17T12:19:36;18.30;99.90
20459;DHT22;10388;52.314;7.938;2022-10-17T12:22:23;18.30;99.90
20459;DHT22;10388;52.314;7.938;2022-10-17T12:25:01;18.30;99.90
20459;DHT22;10388;52.314;7.938;2022-10-17T12:32:58;18.20;99.90
20459;DHT22;10388;52.314;7.938;2022-10-17T12:35:31;18.20;99.90
20459;DHT22;10388;52.314;7.938;2022-10-17T12:38:24;18.20;99.90
20459;DHT22;10388;52.314;7.938;2022-10-17T12:40:56;18.20;99.90
20459;DHT22;10388;52.314;7.938;2022-10-17T12:45:58;18.10;99.90
20459;DHT22;10388;52.314;7.938;2022-10-17T12:51:13;18.10;99.90
20459;DHT22;10388;52.314;7.938;2022-10-17T12:53:56;18.20;99.90
20459;DHT22;10388;52.314;7.938;2022-10-17T12:56:43;18.40;99.90
20459;DHT22;10388;52.314;7.938;2022-10-17T12:59:20;18.60;99.90
20459;DHT22;10388;52.314;7.938;2022-10-17T13:01:54;18.60;99.90
20459;DHT22;10388;52.314;7.938;2022-10-17T13:04:27;18.60;99.90
20459;DHT22;10388;52.314;7.938;2022-10-17T13:06:59;18.50;99.90
20459;DHT22;10388;52.314;7.938;2022-10-17T13:09:37;18.50;99.90
20459;DHT22;10388;52.314;7.938;2022-10-17T13:12:23;18.50;99.90
20459;DHT22;10388;52.314;7.938;2022-10-17T13:14:54;18.40;99.90
20459;DHT22;10388;52.314;7.938;2022-10-17T13:17:28;18.30;99.90
20459;DHT22;10388;52.314;7.938;2022-10-17T13:20:00;18.30;99.90
20459;DHT22;10388;52.314;7.938;2022-10-17T13:22:31;18.20;99.90
20459;DHT22;10388;52.314;7.938;2022-10-17T13:25:14;18.10;99.90
20459;DHT22;10388;52.314;7.938;2022-10-17T13:27:46;18.10;99.90
20459;DHT22;10388;52.314;7.938;2022-10-17T13:32:53;18.00;99.90
20459;DHT22;10388;52.314;7.938;2022-10-17T13:37:58;17.90;99.90
20459;DHT22;10388;52.314;7.938;2022-10-17T13:40:30;17.90;99.90
20459;DHT22;10388;52.314;7.938;2022-10-17T13:43:18;17.90;99.90
20459;DHT22;10388;52.314;7.938;2022-10-17T13:45:54;17.80;99.90
20459;DHT22;10388;52.314;7.938;2022-10-17T13:48:27;17.80;99.90
20459;DHT22;10388;52.314;7.938;2022-10-17T13:51:01;17.80;99.90
20459;DHT22;10388;52.314;7.938;2022-10-17T13:53:35;17.80;99.90
20459;DHT22;10388;52.314;7.938;2022-10-17T13:58:45;17.70;99.90
20459;DHT22;10388;52.314;7.938;2022-10-17T14:01:16;17.70;99.90
20459;DHT22;10388;52.314;7.938;2022-10-17T14:03:48;17.70;99.90
20459;DHT22;10388;52.314;7.938;2022-10-17T14:06:19;17.60;99.90
20459;DHT22;10388;52.314;7.938;2022-10-17T14:11:28;17.60;99.90
20459;DHT22;10388;52.314;7.938;2022-10-17T14:14:00;17.60;99.90
20459;DHT22;10388;52.314;7.938;2022-10-17T14:16:38;17.50;99.90
20459;DHT22;10388;52.314;7.938;2022-10-17T14:19:34;17.50;99.90
20459;DHT22;10388;52.314;7.938;2022-10-17T14:24:50;17.40;99.90
20459;DHT22;10388;52.314;7.938;2022-10-17T14:27:32;17.40;99.90
20459;DHT22;10388;52.314;7.938;2022-10-17T14:32:59;17.30;99.90
20459;DHT22;10388;52.314;7.938;2022-10-17T14:35:30;17.30;99.90
20459;DHT22;10388;52.314;7.938;2022-10-17T14:38:04;17.30;99.90
20459;DHT22;10388;52.314;7.938;2022-10-17T14:40:34;17.30;99.90
20459;DHT22;10388;52.314;7.938;2022-10-17T14:43:05;17.30;99.90
20459;DHT22;10388;52.314;7.938;2022-10-17T14:45:37;17.20;99.90
20459;DHT22;10388;52.314;7.938;2022-10-17T14:48:12;17.20;99.90
20459;DHT22;10388;52.314;7.938;2022-10-17T14:53:37;17.10;99.90
20459;DHT22;10388;52.314;7.938;2022-10-17T14:56:40;17.10;99.90
20459;DHT22;10388;52.314;7.938;2022-10-17T14:59:11;17.10;99.90
20459;DHT22;10388;52.314;7.938;2022-10-17T15:01:41;17.10;99.90
20459;DHT22;10388;52.314;7.938;2022-10-17T15:04:12;17.10;99.90
20459;DHT22;10388;52.314;7.938;2022-10-17T15:06:43;17.10;99.90
20459;DHT22;10388;52.314;7.938;2022-10-17T15:09:14;17.10;99.90
20459;DHT22;10388;52.314;7.938;2022-10-17T15:11:44;17.00;99.90
20459;DHT22;10388;52.314;7.938;2022-10-17T15:14:15;17.00;99.90
20459;DHT22;10388;52.314;7.938;2022-10-17T15:16:45;17.00;99.90
20459;DHT22;10388;52.314;7.938;2022-10-17T15:19:16;17.00;99.90
20459;DHT22;10388;52.314;7.938;2022-10-17T15:21:46;16.90;99.90
20459;DHT22;10388;52.314;7.938;2022-10-17T15:24:17;17.00;99.90
20459;DHT22;10388;52.314;7.938;2022-10-17T15:26:47;16.90;99.90
20459;DHT22;10388;52.314;7.938;2022-10-17T15:29:18;17.00;99.90
20459;DHT22;10388;52.314;7.938;2022-10-17T15:31:49;16.90;99.90
20459;DHT22;10388;52.314;7.938;2022-10-17T15:34:19;16.90;99.90
20459;DHT22;10388;52.314;7.938;2022-10-17T15:36:51;17.00;99.90
20459;DHT22;10388;52.314;7.938;2022-10-17T15:39:21;16.90;99.90
20459;DHT22;10388;52.314;7.938;2022-10-17T15:41:52;16.90;99.90
20459;DHT22;10388;52.314;7.938;2022-10-17T15:44:22;16.90;99.90
20459;DHT22;10388;52.314;7.938;2022-10-17T15:46:54;16.90;99.90
20459;DHT22;10388;52.314;7.938;2022-10-17T15:49:25;16.90;99.90
20459;DHT22;10388;52.314;7.938;2022-10-17T15:51:56;16.80;99.90
20459;DHT22;10388;52.314;7.938;2022-10-17T15:54:26;16.80;99.90
20459;DHT22;10388;52.314;7.938;2022-10-17T15:56:57;16.80;99.90
20459;DHT22;10388;52.314;7.938;2022-10-17T15:59:32;16.80;99.90
20459;DHT22;10388;52.314;7.938;2022-10-17T16:02:11;16.80;99.90
20459;DHT22;10388;52.314;7.938;2022-10-17T16:04:43;16.80;99.90
20459;DHT22;10388;52.314;7.938;2022-10-17T16:07:13;16.80;99.90
20459;DHT22;10388;52.314;7.938;2022-10-17T16:09:44;16.80;99.90
20459;DHT22;10388;52.314;7.938;2022-10-17T16:12:26;16.80;99.90
20459;DHT22;10388;52.314;7.938;2022-10-17T16:14:57;16.80;99.90
20459;DHT22;10388;52.314;7.938;2022-10-17T16:17:28;16.80;99.90
20459;DHT22;10388;52.314;7.938;2022-10-17T16:19:58;16.80;99.90
20459;DHT22;10388;52.314;7.938;2022-10-17T16:22:31;16.80;99.90
20459;DHT22;10388;52.314;7.938;2022-10-17T16:25:07;16.80;99.90
20459;DHT22;10388;52.314;7.938;2022-10-17T16:27:40;16.80;99.90
20459;DHT22;10388;52.314;7.938;2022-10-17T16:30:11;16.80;99.90
20459;DHT22;10388;52.314;7.938;2022-10-17T16:32:42;16.70;99.90
20459;DHT22;10388;52.314;7.938;2022-10-17T16:35:21;16.70;99.90
20459;DHT22;10388;52.314;7.938;2022-10-17T16:37:52;16.70;99.90
20459;DHT22;10388;52.314;7.938;2022-10-17T16:40:23;16.70;99.90
20459;DHT22;10388;52.314;7.938;2022-10-17T16:42:53;16.70;99.90
20459;DHT22;10388;52.314;7.938;2022-10-17T16:45:24;16.70;99.90
20459;DHT22;10388;52.314;7.938;2022-10-17T16:47:54;16.60;99.90
20459;DHT22;10388;52.314;7.938;2022-10-17T16:50:25;16.70;99.90
20459;DHT22;10388;52.314;7.938;2022-10-17T16:52:55;16.60;99.90
20459;DHT22;10388;52.314;7.938;2022-10-17T16:55:26;16.60;99.90
20459;DHT22;10388;52.314;7.938;2022-10-17T16:57:56;16.60;99.90
20459;DHT22;10388;52.314;7.938;2022-10-17T17:00:29;16.60;99.90
20459;DHT22;10388;52.314;7.938;2022-10-17T17:02:59;16.50;99.90
20459;DHT22;10388;52.314;7.938;2022-10-17T17:05:30;16.50;99.90
20459;DHT22;10388;52.314;7.938;2022-10-17T17:08:00;16.50;99.90
20459;DHT22;10388;52.314;7.938;2022-10-17T17:10:33;16.50;99.90
20459;DHT22;10388;52.314;7.938;2022-10-17T17:13:03;16.40;99.90
20459;DHT22;10388;52.314;7.938;2022-10-17T17:15:34;16.40;99.90
20459;DHT22;10388;52.314;7.938;2022-10-17T17:18:04;16.40;99.90
20459;DHT22;10388;52.314;7.938;2022-10-17T17:20:35;16.40;99.90
20459;DHT22;10388;52.314;7.938;2022-10-17T17:23:05;16.40;99.90
20459;DHT22;10388;52.314;7.938;2022-10-17T17:25:36;16.40;99.90
20459;DHT22;10388;52.314;7.938;2022-10-17T17:28:08;16.30;99.90
20459;DHT22;10388;52.314;7.938;2022-10-17T17:30:39;16.30;99.90
20459;DHT22;10388;52.314;7.938;2022-10-17T17:33:09;16.30;99.90
20459;DHT22;10388;52.314;7.938;2022-10-17T17:35:40;16.30;99.90
20459;DHT22;10388;52.314;7.938;2022-10-17T17:38:11;16.30;99.90
20459;DHT22;10388;52.314;7.938;2022-10-17T17:40:47;16.30;99.90
20459;DHT22;10388;52.314;7.938;2022-10-17T17:43:19;16.30;99.90
20459;DHT22;10388;52.314;7.938;2022-10-17T17:45:49;16.30;99.90
20459;DHT22;10388;52.314;7.938;2022-10-17T17:48:20;16.30;99.90
20459;DHT22;10388;52.314;7.938;2022-10-17T17:50:51;16.30;99.90
20459;DHT22;10388;52.314;7.938;2022-10-17T17:53:21;16.30;99.90
20459;DHT22;10388;52.314;7.938;2022-10-17T17:56:10;16.20;99.90
20459;DHT22;10388;52.314;7.938;2022-10-17T17:58:44;16.20;99.90
20459;DHT22;10388;52.314;7.938;2022-10-17T18:01:17;16.30;99.90
20459;DHT22;10388;52.314;7.938;2022-10-17T18:03:51;16.20;99.90
20459;DHT22;10388;52.314;7.938;2022-10-17T18:06:22;16.20;99.90
20459;DHT22;10388;52.314;7.938;2022-10-17T18:08:56;16.20;99.90
20459;DHT22;10388;52.314;7.938;2022-10-17T18:11:31;16.20;99.90
20459;DHT22;10388;52.314;7.938;2022-10-17T18:14:06;16.10;99.90
20459;DHT22;10388;52.314;7.938;2022-10-17T18:16:36;16.00;99.90
20459;DHT22;10388;52.314;7.938;2022-10-17T18:19:09;16.00;99.90
20459;DHT22;10388;52.314;7.938;2022-10-17T18:21:39;16.00;99.90
20459;DHT22;10388;52.314;7.938;2022-10-17T18:24:10;15.90;99.90
20459;DHT22;10388;52.314;7.938;2022-10-17T18:26:41;15.90;99.90
20459;DHT22;10388;52.314;7.938;2022-10-17T18:29:11;15.90;99.90
20459;DHT22;10388;52.314;7.938;2022-10-17T18:31:42;15.80;99.90
20459;DHT22;10388;52.314;7.938;2022-10-17T18:34:13;15.80;99.90
20459;DHT22;10388;52.314;7.938;2022-10-17T18:36:43;15.70;99.90